Knossos Palace — SYQO — position and weather

sailwx.info

Track history (hours):
 
Tides and Currents Weather Stations Pressure Air Temp Water Temp Dewpoint Dewpoint Depression Visibility Wind Speed Wind Dir Waves Ship Positions

Knossos Palace

Last reported at 2017-Jan-17 18:33 UTC. Time now 2017-Jan-17 19:16 UTC.
Position N 37°57' E 023°38'.

Length 214 m; beam 26.4 m; draft 7.3 m.

Type: Ship. MMSI: 237641000.

Date/timePositionNaut miles runAvg speedWind from/ knotsBaromVisibWave heightAir tempDewpointWater temp
2017-Jan-17 18:33N 37°57' E 023°38'0 0.0
2017-Jan-17 17:32N 37°57' E 023°38'0 0.0
2017-Jan-17 16:32N 37°57' E 023°38'0 0.0
2017-Jan-17 15:32N 37°57' E 023°38'0 0.0
2017-Jan-17 14:32N 37°57' E 023°38'0 0.0
2017-Jan-17 13:32N 37°57' E 023°38'0 0.0
2017-Jan-17 12:32N 37°57' E 023°38'0 0.0
2017-Jan-17 11:32N 37°57' E 023°38'0 0.0
2017-Jan-17 10:32N 37°57' E 023°38'0 0.0
2017-Jan-17 09:32N 37°57' E 023°38'0 0.0
2017-Jan-17 08:32N 37°57' E 023°38'0 0.0
2017-Jan-17 07:32N 37°57' E 023°38'0 0.0
2017-Jan-17 06:32N 37°57' E 023°38'0 0.0
2017-Jan-17 05:32N 37°57' E 023°38'0 0.2
2017-Jan-17 04:33N 37°56' E 023°38'1615.6
2017-Jan-17 03:34N 37°42' E 023°45'3220.5
2017-Jan-17 02:00N 37°12' E 024°00'23 0.8 220 / 151012.010.8 15.013.419.0
2017-Jan-15 20:32N 37°32' E 023°46'1919.4
2017-Jan-15 19:33N 37°49' E 023°37'7 7.1
2017-Jan-15 18:31N 37°57' E 023°38'0 0.0
2017-Jan-15 17:31N 37°57' E 023°38'0 0.0
2017-Jan-15 16:31N 37°57' E 023°38'0 0.0
2017-Jan-15 15:31N 37°57' E 023°38'0 0.0
2017-Jan-15 14:31N 37°57' E 023°38'0 0.0
2017-Jan-15 13:31N 37°57' E 023°38'0 0.0
2017-Jan-15 12:31N 37°57' E 023°38'0 0.0
2017-Jan-15 11:31N 37°57' E 023°38'0 0.0
2017-Jan-15 10:31N 37°57' E 023°38'0 0.0
2017-Jan-15 09:31N 37°57' E 023°38'0 0.0
2017-Jan-15 08:28N 37°57' E 023°38'0 0.0
2017-Jan-15 07:29N 37°57' E 023°38'0 0.0
2017-Jan-15 06:28N 37°57' E 023°38'0 0.0
2017-Jan-15 05:31N 37°57' E 023°38'0 0.2
2017-Jan-15 04:34N 37°56' E 023°38'1717.5
2017-Jan-15 03:34N 37°40' E 023°46'6 0.2
2017-Jan-13 20:21N 37°35' E 023°45'1620.3
2017-Jan-13 19:33N 37°50' E 023°37'7 7.2
2017-Jan-13 18:33N 37°57' E 023°38'0 0.0
2017-Jan-13 17:32N 37°57' E 023°38'0 0.0
2017-Jan-13 16:32N 37°57' E 023°38'0 0.0
2017-Jan-13 15:32N 37°57' E 023°38'0 0.0
2017-Jan-13 14:32N 37°57' E 023°38'0 0.0
2017-Jan-13 13:32N 37°57' E 023°38'0 0.0
2017-Jan-13 12:32N 37°57' E 023°38'0 0.0
2017-Jan-13 11:32N 37°57' E 023°38'0 0.0
2017-Jan-13 10:32N 37°57' E 023°38'0 0.0
2017-Jan-13 09:32N 37°57' E 023°38'0 0.0
2017-Jan-13 08:32N 37°57' E 023°38'0 0.0
2017-Jan-13 07:32N 37°57' E 023°38'0 0.0
2017-Jan-13 06:32N 37°57' E 023°38'0 0.0
2017-Jan-13 05:32N 37°57' E 023°38'0 0.0
2017-Jan-13 04:33N 37°57' E 023°38'1313.0
2017-Jan-13 03:33N 37°45' E 023°44'9420.6
2017-Jan-12 23:00N 36°18' E 024°30'85 3.2 040 / 81022.010.8 14.013.218.0
2017-Jan-11 20:24N 37°35' E 023°45'1618.8
2017-Jan-11 19:33N 37°50' E 023°37'7 7.0
2017-Jan-11 18:33N 37°57' E 023°38'0 0.0
2017-Jan-11 17:33N 37°57' E 023°38'0 0.0
2017-Jan-11 16:33N 37°57' E 023°38'0 0.0
2017-Jan-11 15:33N 37°57' E 023°38'0 0.0
2017-Jan-11 14:33N 37°57' E 023°38'0 0.0
2017-Jan-11 13:33N 37°57' E 023°38'0 0.0
2017-Jan-11 12:33N 37°57' E 023°38'0 0.0
2017-Jan-11 11:33N 37°57' E 023°38'0 0.0
2017-Jan-11 10:33N 37°57' E 023°38'0 0.0
2017-Jan-11 09:33N 37°57' E 023°38'0 0.0
2017-Jan-11 08:33N 37°57' E 023°38'0 0.0
2017-Jan-11 07:33N 37°57' E 023°38'0 0.0
2017-Jan-11 06:30N 37°57' E 023°38'0 0.0
2017-Jan-11 05:33N 37°57' E 023°38'0 0.0
2017-Jan-11 04:33N 37°57' E 023°38'1312.9
2017-Jan-11 03:33N 37°45' E 023°44'100 3.7
2017-Jan-10 01:00N 36°12' E 024°30'9119.5 040 / 201006.0 5.4 9.5 7.615.0
2017-Jan-09 20:19N 37°35' E 023°44'1520.3
2017-Jan-09 19:34N 37°50' E 023°37'7 7.1
2017-Jan-09 18:34N 37°57' E 023°38'0 0.0
2017-Jan-09 17:32N 37°57' E 023°38'0 0.0
2017-Jan-09 16:32N 37°57' E 023°38'0 0.0
2017-Jan-09 15:32N 37°57' E 023°38'0 0.0
2017-Jan-09 14:32N 37°57' E 023°38'0 0.0
2017-Jan-09 13:32N 37°57' E 023°38'0 0.0
2017-Jan-09 12:32N 37°57' E 023°38'0 0.0
2017-Jan-09 11:32N 37°57' E 023°38'0 0.0
2017-Jan-09 10:32N 37°57' E 023°38'0 0.0
2017-Jan-09 09:32N 37°57' E 023°38'0 0.0
2017-Jan-09 08:32N 37°57' E 023°38'0 0.0
2017-Jan-09 07:32N 37°57' E 023°38'0 0.0
2017-Jan-09 06:32N 37°57' E 023°38'0 0.0
2017-Jan-09 05:32N 37°57' E 023°38'0 0.0
2017-Jan-09 04:34N 37°57' E 023°38'1212.0
2017-Jan-09 03:33N 37°45' E 023°43'2120.6
2017-Jan-09 02:33N 37°26' E 023°52'11 0.4
2017-Jan-07 20:18N 37°35' E 023°45'1520.5
2017-Jan-07 19:33N 37°49' E 023°37'  
Track history (hours):
 
Tides and Currents Weather Stations Pressure Air Temp Water Temp Dewpoint Dewpoint Depression Visibility Wind Speed Wind Dir Waves Ship Positions

Knossos Palace

Last reported at 2017-Jan-17 18:33 UTC. Time now 2017-Jan-17 19:16 UTC.
Position N 37°57' E 023°38'.

Length 214 m; beam 26.4 m; draft 7.3 m.

Type: Ship. MMSI: 237641000.

Date/timePositionNaut miles runAvg speedWind from/ knotsBaromVisibWave heightAir tempDewpointWater temp
2017-Jan-17 18:33N 37°57' E 023°38'0 0.0
2017-Jan-17 17:32N 37°57' E 023°38'0 0.0
2017-Jan-17 16:32N 37°57' E 023°38'0 0.0
2017-Jan-17 15:32N 37°57' E 023°38'0 0.0
2017-Jan-17 14:32N 37°57' E 023°38'0 0.0
2017-Jan-17 13:32N 37°57' E 023°38'0 0.0
2017-Jan-17 12:32N 37°57' E 023°38'0 0.0
2017-Jan-17 11:32N 37°57' E 023°38'0 0.0
2017-Jan-17 10:32N 37°57' E 023°38'0 0.0
2017-Jan-17 09:32N 37°57' E 023°38'0 0.0
2017-Jan-17 08:32N 37°57' E 023°38'0 0.0
2017-Jan-17 07:32N 37°57' E 023°38'0 0.0
2017-Jan-17 06:32N 37°57' E 023°38'0 0.0
2017-Jan-17 05:32N 37°57' E 023°38'0 0.2
2017-Jan-17 04:33N 37°56' E 023°38'1615.6
2017-Jan-17 03:34N 37°42' E 023°45'3220.5
2017-Jan-17 02:00N 37°12' E 024°00'23 0.8 220 / 151012.010.8 15.013.419.0
2017-Jan-15 20:32N 37°32' E 023°46'1919.4
2017-Jan-15 19:33N 37°49' E 023°37'7 7.1
2017-Jan-15 18:31N 37°57' E 023°38'0 0.0
2017-Jan-15 17:31N 37°57' E 023°38'0 0.0
2017-Jan-15 16:31N 37°57' E 023°38'0 0.0
2017-Jan-15 15:31N 37°57' E 023°38'0 0.0
2017-Jan-15 14:31N 37°57' E 023°38'0 0.0
2017-Jan-15 13:31N 37°57' E 023°38'0 0.0
2017-Jan-15 12:31N 37°57' E 023°38'0 0.0
2017-Jan-15 11:31N 37°57' E 023°38'0 0.0
2017-Jan-15 10:31N 37°57' E 023°38'0 0.0
2017-Jan-15 09:31N 37°57' E 023°38'0 0.0
2017-Jan-15 08:28N 37°57' E 023°38'0 0.0
2017-Jan-15 07:29N 37°57' E 023°38'0 0.0
2017-Jan-15 06:28N 37°57' E 023°38'0 0.0
2017-Jan-15 05:31N 37°57' E 023°38'0 0.2
2017-Jan-15 04:34N 37°56' E 023°38'1717.5
2017-Jan-15 03:34N 37°40' E 023°46'6 0.2
2017-Jan-13 20:21N 37°35' E 023°45'1620.3
2017-Jan-13 19:33N 37°50' E 023°37'7 7.2
2017-Jan-13 18:33N 37°57' E 023°38'0 0.0
2017-Jan-13 17:32N 37°57' E 023°38'0 0.0
2017-Jan-13 16:32N 37°57' E 023°38'0 0.0
2017-Jan-13 15:32N 37°57' E 023°38'0 0.0
2017-Jan-13 14:32N 37°57' E 023°38'0 0.0
2017-Jan-13 13:32N 37°57' E 023°38'0 0.0
2017-Jan-13 12:32N 37°57' E 023°38'0 0.0
2017-Jan-13 11:32N 37°57' E 023°38'0 0.0
2017-Jan-13 10:32N 37°57' E 023°38'0 0.0
2017-Jan-13 09:32N 37°57' E 023°38'0 0.0
2017-Jan-13 08:32N 37°57' E 023°38'0 0.0
2017-Jan-13 07:32N 37°57' E 023°38'0 0.0
2017-Jan-13 06:32N 37°57' E 023°38'0 0.0
2017-Jan-13 05:32N 37°57' E 023°38'0 0.0
2017-Jan-13 04:33N 37°57' E 023°38'1313.0
2017-Jan-13 03:33N 37°45' E 023°44'9420.6
2017-Jan-12 23:00N 36°18' E 024°30'85 3.2 040 / 81022.010.8 14.013.218.0
2017-Jan-11 20:24N 37°35' E 023°45'1618.8
2017-Jan-11 19:33N 37°50' E 023°37'7 7.0
2017-Jan-11 18:33N 37°57' E 023°38'0 0.0
2017-Jan-11 17:33N 37°57' E 023°38'0 0.0
2017-Jan-11 16:33N 37°57' E 023°38'0 0.0
2017-Jan-11 15:33N 37°57' E 023°38'0 0.0
2017-Jan-11 14:33N 37°57' E 023°38'0 0.0
2017-Jan-11 13:33N 37°57' E 023°38'0 0.0
2017-Jan-11 12:33N 37°57' E 023°38'0 0.0
2017-Jan-11 11:33N 37°57' E 023°38'0 0.0
2017-Jan-11 10:33N 37°57' E 023°38'0 0.0
2017-Jan-11 09:33N 37°57' E 023°38'0 0.0
2017-Jan-11 08:33N 37°57' E 023°38'0 0.0
2017-Jan-11 07:33N 37°57' E 023°38'0 0.0
2017-Jan-11 06:30N 37°57' E 023°38'0 0.0
2017-Jan-11 05:33N 37°57' E 023°38'0 0.0
2017-Jan-11 04:33N 37°57' E 023°38'1312.9
2017-Jan-11 03:33N 37°45' E 023°44'100 3.7
2017-Jan-10 01:00N 36°12' E 024°30'9119.5 040 / 201006.0 5.4 9.5 7.615.0
2017-Jan-09 20:19N 37°35' E 023°44'1520.3
2017-Jan-09 19:34N 37°50' E 023°37'7 7.1
2017-Jan-09 18:34N 37°57' E 023°38'0 0.0
2017-Jan-09 17:32N 37°57' E 023°38'0 0.0
2017-Jan-09 16:32N 37°57' E 023°38'0 0.0
2017-Jan-09 15:32N 37°57' E 023°38'0 0.0
2017-Jan-09 14:32N 37°57' E 023°38'0 0.0
2017-Jan-09 13:32N 37°57' E 023°38'0 0.0
2017-Jan-09 12:32N 37°57' E 023°38'0 0.0
2017-Jan-09 11:32N 37°57' E 023°38'0 0.0
2017-Jan-09 10:32N 37°57' E 023°38'0 0.0
2017-Jan-09 09:32N 37°57' E 023°38'0 0.0
2017-Jan-09 08:32N 37°57' E 023°38'0 0.0
2017-Jan-09 07:32N 37°57' E 023°38'0 0.0
2017-Jan-09 06:32N 37°57' E 023°38'0 0.0
2017-Jan-09 05:32N 37°57' E 023°38'0 0.0
2017-Jan-09 04:34N 37°57' E 023°38'1212.0
2017-Jan-09 03:33N 37°45' E 023°43'2120.6
2017-Jan-09 02:33N 37°26' E 023°52'11 0.4
2017-Jan-07 20:18N 37°35' E 023°45'1520.5
2017-Jan-07 19:33N 37°49' E 023°37'  

Dump ship's entire track history